createdAt,value
2023-04-21T00:02:28.941Z,13.28
2023-04-21T00:05:04.140Z,13.24
2023-04-21T00:07:39.381Z,13.19
2023-04-21T00:10:14.678Z,13.16
2023-04-21T00:12:48.176Z,13.13
2023-04-21T00:15:22.201Z,13.10
2023-04-21T00:18:05.387Z,13.07
2023-04-21T00:20:39.655Z,13.03
2023-04-21T00:23:13.625Z,13.00
2023-04-21T00:25:47.940Z,12.98
2023-04-21T00:28:22.354Z,12.96
2023-04-21T00:30:57.019Z,12.93
2023-04-21T00:33:31.198Z,12.90
2023-04-21T00:36:04.719Z,12.86
2023-04-21T00:38:41.370Z,12.83
2023-04-21T00:41:19.086Z,12.79
2023-04-21T00:44:06.865Z,12.76
2023-04-21T00:46:41.481Z,12.73
2023-04-21T00:49:15.941Z,12.69
2023-04-21T00:51:49.627Z,12.67
2023-04-21T00:54:25.894Z,12.65
2023-04-21T00:57:02.746Z,12.63
2023-04-21T00:59:36.579Z,12.60
2023-04-21T01:02:10.007Z,12.59
2023-04-21T01:04:43.899Z,12.56
2023-04-21T01:07:17.754Z,12.54
2023-04-21T01:09:51.667Z,12.51
2023-04-21T01:12:24.912Z,12.47
2023-04-21T01:14:58.745Z,12.44
2023-04-21T01:17:32.788Z,12.39
2023-04-21T01:20:12.126Z,12.35
2023-04-21T01:22:47.249Z,12.31
2023-04-21T01:25:23.151Z,12.28
2023-04-21T01:27:57.126Z,12.26
2023-04-21T01:30:30.773Z,12.21
2023-04-21T01:33:05.915Z,12.18
2023-04-21T01:35:39.516Z,12.14
2023-04-21T01:38:13.943Z,12.11
2023-04-21T01:40:49.417Z,12.09
2023-04-21T01:43:26.418Z,12.06
2023-04-21T01:46:00.954Z,12.03
2023-04-21T01:48:35.029Z,12.00
2023-04-21T01:51:09.032Z,11.97
2023-04-21T01:53:42.624Z,11.92
2023-04-21T01:56:19.261Z,11.87
2023-04-21T01:58:53.682Z,11.84
2023-04-21T02:01:27.510Z,11.81
2023-04-21T02:04:01.121Z,11.78
2023-04-21T02:06:36.204Z,11.74
2023-04-21T02:09:09.910Z,11.71
2023-04-21T02:11:43.786Z,11.68
2023-04-21T02:14:18.016Z,11.65
2023-04-21T02:16:51.758Z,11.61
2023-04-21T02:19:25.707Z,11.58
2023-04-21T02:22:01.445Z,11.55
2023-04-21T02:24:35.274Z,11.53
2023-04-21T02:27:09.121Z,11.52
2023-04-21T02:29:43.056Z,11.50
2023-04-21T02:32:25.560Z,11.47
2023-04-21T02:35:00.516Z,11.44
2023-04-21T02:37:34.592Z,11.43
2023-04-21T02:40:10.583Z,11.42
2023-04-21T02:42:44.850Z,11.38
2023-04-21T02:45:18.467Z,11.37
2023-04-21T02:47:52.199Z,11.33
2023-04-21T02:50:26.528Z,11.30
2023-04-21T02:53:00.277Z,11.27
2023-04-21T02:55:34.253Z,11.22
2023-04-21T02:58:09.704Z,11.19
2023-04-21T03:00:43.235Z,11.16
2023-04-21T03:03:18.842Z,11.13
2023-04-21T03:05:57.842Z,11.08
2023-04-21T03:08:31.646Z,11.05
2023-04-21T03:11:06.038Z,11.00
2023-04-21T03:13:39.871Z,10.98
2023-04-21T03:16:13.849Z,10.95
2023-04-21T03:18:51.437Z,10.93
2023-04-21T03:21:25.799Z,10.90
2023-04-21T03:23:59.410Z,10.87
2023-04-21T03:26:33.690Z,10.87
2023-04-21T03:29:07.288Z,10.84
2023-04-21T03:31:41.342Z,10.82
2023-04-21T03:34:15.237Z,10.82
2023-04-21T03:36:49.274Z,10.82
2023-04-21T03:39:23.445Z,10.81
2023-04-21T03:41:59.697Z,10.80
2023-04-21T03:44:35.484Z,10.78
2023-04-21T03:47:09.274Z,10.76
2023-04-21T03:49:42.742Z,10.77
2023-04-21T03:52:16.256Z,10.76
2023-04-21T03:54:49.750Z,10.76
2023-04-21T03:57:23.378Z,10.76
2023-04-21T03:59:57.308Z,10.76
2023-04-21T04:02:31.407Z,10.77
2023-04-21T04:05:05.634Z,10.78
2023-04-21T04:07:39.522Z,10.80
2023-04-21T04:10:13.528Z,10.80
2023-04-21T04:12:47.441Z,10.80
2023-04-21T04:15:21.303Z,10.82
2023-04-21T04:17:55.649Z,10.84
2023-04-21T04:20:29.835Z,10.87
2023-04-21T04:23:03.348Z,10.92
2023-04-21T04:25:37.682Z,10.96
2023-04-21T04:28:12.955Z,11.01
2023-04-21T04:30:56.897Z,11.07
2023-04-21T04:33:30.338Z,11.13
2023-04-21T04:36:04.110Z,11.19
2023-04-21T04:38:37.796Z,11.23
2023-04-21T04:41:13.263Z,11.28
2023-04-21T04:43:47.855Z,11.36
2023-04-21T04:46:21.957Z,11.61
2023-04-21T04:48:55.750Z,12.11
2023-04-21T04:51:29.698Z,12.60
2023-04-21T04:54:03.603Z,12.99
2023-04-21T04:56:37.873Z,13.30
2023-04-21T04:59:12.484Z,13.27
2023-04-21T05:01:46.625Z,13.15
2023-04-21T05:04:20.871Z,13.07
2023-04-21T05:06:54.999Z,13.08
2023-04-21T05:09:28.152Z,13.14
2023-04-21T05:12:02.905Z,13.69
2023-04-21T05:14:36.455Z,14.86
2023-04-21T05:17:10.878Z,16.12
2023-04-21T05:19:44.804Z,17.17
2023-04-21T05:22:18.619Z,17.95
2023-04-21T05:24:52.521Z,18.78
2023-04-21T05:27:29.449Z,19.36
2023-04-21T05:30:03.264Z,19.90
2023-04-21T05:32:37.767Z,20.35
2023-04-21T05:35:12.337Z,20.15
2023-04-21T05:37:46.275Z,19.75
2023-04-21T05:40:20.253Z,19.60
2023-04-21T05:42:53.652Z,20.30
2023-04-21T05:45:27.945Z,21.50
2023-04-21T05:48:01.662Z,22.89
2023-04-21T05:50:38.874Z,24.06
2023-04-21T05:53:12.518Z,25.06
2023-04-21T05:55:46.244Z,26.34
2023-04-21T05:58:19.846Z,27.54
2023-04-21T06:00:54.069Z,28.12
2023-04-21T06:03:27.847Z,28.25
2023-04-21T06:06:02.216Z,28.31
2023-04-21T06:08:36.299Z,28.36
2023-04-21T06:11:17.629Z,29.07
2023-04-21T06:13:51.193Z,30.03
2023-04-21T06:16:24.815Z,30.48
2023-04-21T06:18:59.300Z,30.54
2023-04-21T06:21:33.004Z,30.83
2023-04-21T06:24:07.121Z,31.20
2023-04-21T06:26:41.881Z,31.66
2023-04-21T06:29:15.967Z,32.37
2023-04-21T06:31:49.635Z,33.58
2023-04-21T06:34:23.608Z,34.84
2023-04-21T06:36:57.209Z,35.93
2023-04-21T06:39:31.076Z,36.87
2023-04-21T06:42:04.744Z,37.90
2023-04-21T06:44:45.384Z,38.90
2023-04-21T06:47:19.693Z,39.83
2023-04-21T06:49:53.916Z,40.45
2023-04-21T06:52:27.738Z,40.95
2023-04-21T06:55:01.185Z,41.79
2023-04-21T06:57:35.167Z,42.57
2023-04-21T07:00:10.900Z,43.28
2023-04-21T07:02:44.930Z,44.07
2023-04-21T07:05:19.383Z,44.51
2023-04-21T07:07:53.953Z,44.71
2023-04-21T07:10:48.687Z,44.77
2023-04-21T07:13:22.478Z,44.68
2023-04-21T07:15:56.335Z,44.82
2023-04-21T07:18:30.620Z,45.04
2023-04-21T07:21:04.319Z,45.50
2023-04-21T07:23:38.245Z,45.81
2023-04-21T07:26:12.244Z,46.06
2023-04-21T07:28:46.066Z,46.11
2023-04-21T07:31:23.689Z,46.05
2023-04-21T07:34:00.475Z,46.52
2023-04-21T07:36:34.383Z,47.19
2023-04-21T07:39:08.241Z,47.73
2023-04-21T07:41:41.824Z,47.90
2023-04-21T07:44:15.585Z,47.91
2023-04-21T07:46:49.213Z,47.92
2023-04-21T07:49:23.310Z,47.66
2023-04-21T07:51:57.423Z,46.82
2023-04-21T07:54:31.877Z,45.52
2023-04-21T07:57:05.520Z,44.97
2023-04-21T07:59:39.347Z,44.03
2023-04-21T08:02:13.283Z,42.76
2023-04-21T08:04:47.274Z,41.90
2023-04-21T08:07:22.101Z,41.76
2023-04-21T08:09:56.518Z,42.50
2023-04-21T08:12:30.531Z,43.26
2023-04-21T08:15:08.408Z,44.17
2023-04-21T08:17:42.910Z,45.05
2023-04-21T08:20:17.298Z,44.66
2023-04-21T08:22:51.209Z,42.73
2023-04-21T08:25:25.188Z,40.63
2023-04-21T08:27:59.038Z,38.95
2023-04-21T08:30:33.614Z,37.88
2023-04-21T08:33:08.803Z,37.56
2023-04-21T08:35:54.853Z,38.43
2023-04-21T08:38:35.818Z,40.27
2023-04-21T08:41:10.068Z,41.87
2023-04-21T08:43:44.329Z,43.20
2023-04-21T08:46:18.469Z,44.13
2023-04-21T08:48:53.753Z,44.80
2023-04-21T08:51:32.121Z,45.08
2023-04-21T08:54:09.740Z,45.00
2023-04-21T08:56:43.279Z,44.46
2023-04-21T08:59:17.163Z,42.90
2023-04-21T09:02:12.510Z,41.77
2023-04-21T09:04:47.724Z,42.28
2023-04-21T09:07:36.008Z,42.96
2023-04-21T09:10:11.402Z,43.85
2023-04-21T09:12:52.167Z,44.25
2023-04-21T09:15:26.114Z,44.78
2023-04-21T09:18:00.402Z,44.97
2023-04-21T09:20:34.460Z,44.20
2023-04-21T09:23:09.794Z,42.45
2023-04-21T09:25:44.830Z,40.69
2023-04-21T09:28:18.668Z,40.13
2023-04-21T09:31:25.831Z,39.27
2023-04-21T09:34:28.344Z,37.30
2023-04-21T09:37:39.718Z,35.23
2023-04-21T09:40:46.091Z,33.56
2023-04-21T09:43:43.890Z,32.12
2023-04-21T09:46:24.760Z,31.47
2023-04-21T09:49:02.209Z,31.84
2023-04-21T09:52:05.965Z,33.08
2023-04-21T09:54:34.331Z,34.05
2023-04-21T09:57:06.561Z,35.32
2023-04-21T09:59:46.088Z,36.94
2023-04-21T10:02:21.668Z,38.32
2023-04-21T10:04:56.146Z,39.27
2023-04-21T10:07:30.102Z,40.31
2023-04-21T10:10:05.339Z,40.84
2023-04-21T10:12:40.524Z,40.89
2023-04-21T10:15:34.201Z,40.91
2023-04-21T10:18:24.115Z,41.57
2023-04-21T10:21:04.279Z,42.21
2023-04-21T10:23:41.703Z,41.60
2023-04-21T10:26:15.454Z,40.61
2023-04-21T10:28:57.306Z,40.07
2023-04-21T10:31:39.703Z,40.15
2023-04-21T10:34:36.559Z,39.47
2023-04-21T10:37:20.568Z,37.95
2023-04-21T10:39:58.594Z,36.65
2023-04-21T10:42:38.659Z,35.36
2023-04-21T10:45:16.821Z,33.95
2023-04-21T10:47:52.399Z,32.95
2023-04-21T10:50:31.576Z,32.80
2023-04-21T10:53:12.115Z,33.05
2023-04-21T10:55:50.757Z,33.92
2023-04-21T10:58:27.092Z,35.09
2023-04-21T11:01:03.677Z,36.08
2023-04-21T11:03:39.928Z,36.40
2023-04-21T11:06:20.352Z,36.56
2023-04-21T11:09:00.460Z,37.66
2023-04-21T11:11:35.255Z,39.16
2023-04-21T11:14:12.266Z,39.86
2023-04-21T11:16:47.698Z,39.95
2023-04-21T11:19:24.772Z,40.63
2023-04-21T11:21:59.018Z,41.72
2023-04-21T11:24:33.023Z,42.70
2023-04-21T11:27:12.737Z,42.77
2023-04-21T11:29:50.384Z,41.87
2023-04-21T11:32:24.961Z,40.71
2023-04-21T11:34:58.912Z,40.08
2023-04-21T11:37:33.119Z,39.66
2023-04-21T11:40:08.850Z,39.06
2023-04-21T11:42:42.518Z,38.56
2023-04-21T11:45:22.627Z,38.49
2023-04-21T11:48:16.738Z,38.44
2023-04-21T11:50:53.991Z,38.66
2023-04-21T11:53:26.991Z,38.62
2023-04-21T11:56:02.777Z,37.97
2023-04-21T11:58:36.718Z,37.66
2023-04-21T12:01:13.656Z,38.03
2023-04-21T12:03:54.718Z,38.91
2023-04-21T12:06:31.783Z,39.29
2023-04-21T12:09:08.746Z,39.64
2023-04-21T12:11:42.498Z,40.30
2023-04-21T12:14:16.467Z,40.96
2023-04-21T12:16:54.079Z,41.43
2023-04-21T12:19:38.352Z,41.43
2023-04-21T12:22:16.902Z,41.30
2023-04-21T12:24:52.373Z,40.98
2023-04-21T12:27:28.514Z,40.56
2023-04-21T12:30:07.046Z,39.81
2023-04-21T12:32:41.903Z,39.40
2023-04-21T12:35:16.091Z,39.58
2023-04-21T12:37:49.815Z,40.04
2023-04-21T12:40:23.543Z,40.22
2023-04-21T12:42:57.653Z,39.92
2023-04-21T12:45:32.197Z,39.67
2023-04-21T12:48:07.461Z,39.19
2023-04-21T12:50:41.545Z,39.10
2023-04-21T12:53:15.402Z,39.40
2023-04-21T12:56:01.009Z,39.35
2023-04-21T12:58:38.246Z,38.70
2023-04-21T13:01:12.532Z,38.05
2023-04-21T13:03:46.466Z,37.58
2023-04-21T13:06:20.775Z,37.51
2023-04-21T13:08:54.435Z,37.67
2023-04-21T13:11:28.040Z,37.81
2023-04-21T13:14:04.399Z,37.69
2023-04-21T13:16:38.430Z,37.54
2023-04-21T13:19:15.211Z,37.21
2023-04-21T13:21:50.137Z,36.37
2023-04-21T13:24:26.336Z,35.82
2023-04-21T13:26:59.921Z,35.30
2023-04-21T13:29:35.159Z,34.58
2023-04-21T13:32:10.174Z,33.48
2023-04-21T13:34:43.979Z,32.53
2023-04-21T13:37:17.697Z,31.87
2023-04-21T13:39:51.199Z,31.28
2023-04-21T13:42:24.648Z,30.66
2023-04-21T13:44:59.695Z,29.95
2023-04-21T13:47:34.273Z,29.44
2023-04-21T13:50:10.390Z,28.97
2023-04-21T13:52:44.816Z,28.74
2023-04-21T13:55:19.045Z,28.50
2023-04-21T13:57:53.566Z,28.22
2023-04-21T14:00:28.466Z,27.93
2023-04-21T14:03:02.646Z,27.69
2023-04-21T14:05:37.125Z,27.37
2023-04-21T14:08:10.934Z,27.06
2023-04-21T14:10:45.248Z,26.86
2023-04-21T14:13:34.011Z,26.72
2023-04-21T14:16:12.530Z,26.56
2023-04-21T14:18:47.654Z,26.34
2023-04-21T14:21:24.193Z,25.99
2023-04-21T14:23:58.024Z,25.79
2023-04-21T14:26:31.936Z,25.72
2023-04-21T14:29:06.156Z,25.63
2023-04-21T14:31:40.085Z,25.57
2023-04-21T14:34:13.654Z,25.43
2023-04-21T14:36:50.463Z,25.38
2023-04-21T14:39:24.374Z,25.31
2023-04-21T14:41:58.825Z,25.24
2023-04-21T14:44:32.729Z,25.18
2023-04-21T14:47:10.312Z,25.08
2023-04-21T14:49:45.182Z,24.95
2023-04-21T14:52:19.431Z,24.91
2023-04-21T14:54:53.342Z,24.89
2023-04-21T14:57:27.414Z,24.86
2023-04-21T15:00:01.275Z,24.80
2023-04-21T15:02:35.205Z,24.67
2023-04-21T15:05:11.138Z,24.57
2023-04-21T15:07:44.820Z,24.47
2023-04-21T15:10:18.959Z,24.46
2023-04-21T15:12:53.053Z,24.43
2023-04-21T15:15:27.252Z,24.37
2023-04-21T15:18:01.184Z,24.23
2023-04-21T15:20:44.367Z,24.08
2023-04-21T15:23:19.724Z,23.92
2023-04-21T15:25:53.933Z,23.89
2023-04-21T15:28:27.434Z,23.90
2023-04-21T15:31:01.891Z,23.88
2023-04-21T15:33:35.850Z,23.87
2023-04-21T15:36:09.985Z,23.85
2023-04-21T15:38:45.215Z,23.75
2023-04-21T15:41:19.125Z,23.67
2023-04-21T15:43:53.419Z,23.59
2023-04-21T15:46:27.488Z,23.50
2023-04-21T15:49:01.617Z,23.38
2023-04-21T15:51:35.801Z,23.27
2023-04-21T15:54:10.922Z,23.17
2023-04-21T15:56:44.366Z,23.11
2023-04-21T15:59:18.385Z,23.03
2023-04-21T16:01:52.017Z,22.94
2023-04-21T16:04:26.672Z,22.88
2023-04-21T16:07:01.874Z,22.83
2023-04-21T16:09:35.445Z,22.78
2023-04-21T16:12:10.819Z,22.73
2023-04-21T16:14:57.172Z,22.65
2023-04-21T16:17:34.057Z,22.55
2023-04-21T16:20:09.822Z,22.48
2023-04-21T16:22:44.653Z,22.42
2023-04-21T16:25:19.886Z,22.34
2023-04-21T16:27:55.110Z,22.30
2023-04-21T16:30:29.512Z,22.19
2023-04-21T16:33:04.375Z,22.09
2023-04-21T16:35:38.728Z,22.00
2023-04-21T16:38:13.215Z,21.95
2023-04-21T16:40:47.610Z,21.88
2023-04-21T16:43:21.332Z,21.80
2023-04-21T16:45:55.330Z,21.71
2023-04-21T16:48:30.101Z,21.63
2023-04-21T16:51:26.569Z,21.52
2023-04-21T16:54:00.627Z,21.44
2023-04-21T16:56:35.886Z,21.37
2023-04-21T16:59:11.201Z,21.31
2023-04-21T17:01:45.268Z,21.22
2023-04-21T17:04:19.479Z,21.12
2023-04-21T17:06:53.383Z,21.03
2023-04-21T17:09:27.596Z,20.94
2023-04-21T17:12:01.595Z,20.86
2023-04-21T17:14:35.357Z,20.77
2023-04-21T17:17:09.537Z,20.66
2023-04-21T17:19:43.343Z,20.56
2023-04-21T17:22:17.150Z,20.49
2023-04-21T17:24:53.733Z,20.42
2023-04-21T17:27:29.066Z,20.35
2023-04-21T17:30:03.100Z,20.29
2023-04-21T17:32:37.816Z,20.21
2023-04-21T17:35:12.501Z,20.14
2023-04-21T17:37:46.552Z,20.05
2023-04-21T17:40:20.780Z,19.96
2023-04-21T17:42:54.673Z,19.89
2023-04-21T17:45:28.980Z,19.81
2023-04-21T17:48:03.053Z,19.73
2023-04-21T17:50:37.206Z,19.65
2023-04-21T17:53:11.117Z,19.60
2023-04-21T17:55:45.256Z,19.52
2023-04-21T17:58:19.537Z,19.44
2023-04-21T18:00:53.942Z,19.38
2023-04-21T18:03:28.682Z,19.30
2023-04-21T18:06:03.616Z,19.22
2023-04-21T18:08:38.277Z,19.12
2023-04-21T18:11:12.862Z,19.03
2023-04-21T18:13:46.687Z,18.95
2023-04-21T18:16:20.728Z,18.87
2023-04-21T18:18:54.872Z,18.78
2023-04-21T18:21:29.370Z,18.71
2023-04-21T18:24:03.230Z,18.64
2023-04-21T18:26:36.769Z,18.56
2023-04-21T18:29:12.054Z,18.46
2023-04-21T18:31:46.563Z,18.39
2023-04-21T18:34:21.589Z,18.33
2023-04-21T18:36:57.370Z,18.26
2023-04-21T18:39:31.619Z,18.16
2023-04-21T18:42:07.275Z,18.06
2023-04-21T18:44:41.615Z,17.98
2023-04-21T18:47:16.162Z,17.91
2023-04-21T18:49:55.336Z,17.84
2023-04-21T18:52:29.695Z,17.76
2023-04-21T18:55:04.441Z,17.70
2023-04-21T18:57:40.063Z,17.65
2023-04-21T19:00:17.339Z,17.58
2023-04-21T19:02:51.759Z,17.52
2023-04-21T19:05:29.603Z,17.46
2023-04-21T19:08:09.295Z,17.40
2023-04-21T19:10:44.246Z,17.35
2023-04-21T19:13:19.068Z,17.29
2023-04-21T19:15:54.109Z,17.22
2023-04-21T19:18:31.332Z,17.14
2023-04-21T19:21:06.589Z,17.08
2023-04-21T19:23:43.047Z,17.00
2023-04-21T19:26:19.833Z,16.94
2023-04-21T19:28:55.983Z,16.88
2023-04-21T19:31:31.120Z,16.78
2023-04-21T19:34:21.873Z,16.66
2023-04-21T19:37:02.819Z,16.58
2023-04-21T19:39:38.346Z,16.52
2023-04-21T19:42:14.727Z,16.46
2023-04-21T19:44:51.831Z,16.43
2023-04-21T19:47:26.540Z,16.37
2023-04-21T19:50:02.565Z,16.32
2023-04-21T19:52:37.086Z,16.27
2023-04-21T19:55:13.698Z,16.24
2023-04-21T19:57:53.127Z,16.21
2023-04-21T20:00:29.388Z,16.15
2023-04-21T20:03:05.830Z,16.10
2023-04-21T20:05:43.245Z,16.08
2023-04-21T20:08:17.807Z,16.04
2023-04-21T20:10:52.306Z,16.01
2023-04-21T20:13:27.724Z,15.98
2023-04-21T20:16:03.663Z,15.96
2023-04-21T20:18:40.436Z,15.92
2023-04-21T20:21:14.357Z,15.83
2023-04-21T20:23:52.019Z,15.76
2023-04-21T20:26:26.549Z,15.70
2023-04-21T20:29:02.025Z,15.66
2023-04-21T20:31:36.944Z,15.64
2023-04-21T20:34:11.128Z,15.60
2023-04-21T20:36:46.688Z,15.56
2023-04-21T20:39:20.957Z,15.52
2023-04-21T20:42:08.888Z,15.49
2023-04-21T20:44:46.466Z,15.47
2023-04-21T20:47:20.510Z,15.47
2023-04-21T20:49:55.103Z,15.46
2023-04-21T20:52:29.528Z,15.43
2023-04-21T20:55:03.672Z,15.42
2023-04-21T20:57:38.075Z,15.41
2023-04-21T21:00:14.028Z,15.38
2023-04-21T21:02:50.631Z,15.37
2023-04-21T21:05:24.622Z,15.33
2023-04-21T21:07:59.501Z,15.30
2023-04-21T21:10:33.430Z,15.27
2023-04-21T21:13:07.776Z,15.24
2023-04-21T21:15:41.920Z,15.22
2023-04-21T21:18:15.600Z,15.20
2023-04-21T21:20:49.165Z,15.18
2023-04-21T21:23:23.212Z,15.15
2023-04-21T21:25:58.993Z,15.12
2023-04-21T21:28:33.065Z,15.10
2023-04-21T21:31:08.398Z,15.08
2023-04-21T21:33:42.306Z,15.06
2023-04-21T21:36:16.100Z,15.04
2023-04-21T21:38:49.887Z,15.01
2023-04-21T21:41:23.688Z,14.98
2023-04-21T21:43:57.294Z,14.94
2023-04-21T21:46:31.679Z,14.90
2023-04-21T21:49:05.663Z,14.83
2023-04-21T21:51:39.303Z,14.76
2023-04-21T21:54:12.693Z,14.71
2023-04-21T21:56:46.565Z,14.66
2023-04-21T21:59:20.292Z,14.61
2023-04-21T22:01:54.214Z,14.58
2023-04-21T22:04:28.474Z,14.54
2023-04-21T22:07:02.394Z,14.48
2023-04-21T22:09:37.675Z,14.43
2023-04-21T22:12:11.537Z,14.40
2023-04-21T22:14:46.921Z,14.36
2023-04-21T22:17:21.671Z,14.32
2023-04-21T22:19:56.407Z,14.29
2023-04-21T22:22:30.259Z,14.25
2023-04-21T22:25:04.380Z,14.21
2023-04-21T22:27:43.027Z,14.18
2023-04-21T22:30:17.323Z,14.14
2023-04-21T22:32:51.168Z,14.11
2023-04-21T22:35:25.260Z,14.09
2023-04-21T22:37:58.901Z,14.06
2023-04-21T22:40:32.649Z,14.04
2023-04-21T22:43:06.419Z,14.01
2023-04-21T22:45:40.709Z,13.98
2023-04-21T22:48:22.170Z,13.93
2023-04-21T22:50:57.753Z,13.90
2023-04-21T22:53:31.642Z,13.87
2023-04-21T22:56:06.179Z,13.83
2023-04-21T22:58:42.521Z,13.79
2023-04-21T23:01:20.630Z,13.74
2023-04-21T23:03:54.242Z,13.70
2023-04-21T23:06:28.739Z,13.69
2023-04-21T23:09:02.707Z,13.70
2023-04-21T23:11:36.802Z,13.69
2023-04-21T23:14:10.620Z,13.68
2023-04-21T23:16:44.317Z,13.68
2023-04-21T23:19:17.968Z,13.65
2023-04-21T23:21:51.611Z,13.62
2023-04-21T23:24:25.543Z,13.61
2023-04-21T23:26:59.421Z,13.59
2023-04-21T23:29:33.646Z,13.57
2023-04-21T23:32:07.565Z,13.55
2023-04-21T23:34:41.458Z,13.55
2023-04-21T23:37:15.148Z,13.53
2023-04-21T23:39:48.867Z,13.51
2023-04-21T23:42:22.656Z,13.49
2023-04-21T23:44:56.497Z,13.46
2023-04-21T23:47:30.108Z,13.45
2023-04-21T23:50:04.009Z,13.40
2023-04-21T23:52:38.167Z,13.36
2023-04-21T23:55:13.533Z,13.33
2023-04-21T23:57:47.702Z,13.30
